sensor_id;sensor_type;location;lat;lon;timestamp;temperature;humidity
49829;DHT22;35723;51.194;5.112;2023-11-21T00:00:16;10.60;99.90
49829;DHT22;35723;51.194;5.112;2023-11-21T00:02:43;10.60;99.90
49829;DHT22;35723;51.194;5.112;2023-11-21T00:05:10;10.50;99.90
49829;DHT22;35723;51.194;5.112;2023-11-21T00:07:38;10.60;99.90
49829;DHT22;35723;51.194;5.112;2023-11-21T00:10:04;10.60;99.90
49829;DHT22;35723;51.194;5.112;2023-11-21T00:12:31;10.60;99.90
49829;DHT22;35723;51.194;5.112;2023-11-21T00:14:57;10.70;99.90
49829;DHT22;35723;51.194;5.112;2023-11-21T00:17:23;10.70;99.90
49829;DHT22;35723;51.194;5.112;2023-11-21T00:19:49;10.60;99.90
49829;DHT22;35723;51.194;5.112;2023-11-21T00:22:17;10.60;99.90
49829;DHT22;35723;51.194;5.112;2023-11-21T00:24:43;10.60;99.90
49829;DHT22;35723;51.194;5.112;2023-11-21T00:27:09;10.60;99.90
49829;DHT22;35723;51.194;5.112;2023-11-21T00:29:35;10.60;99.90
49829;DHT22;35723;51.194;5.112;2023-11-21T00:32:01;10.70;99.90
49829;DHT22;35723;51.194;5.112;2023-11-21T00:34:27;10.70;99.90
49829;DHT22;35723;51.194;5.112;2023-11-21T00:36:52;10.70;99.90
49829;DHT22;35723;51.194;5.112;2023-11-21T00:39:18;10.70;99.90
49829;DHT22;35723;51.194;5.112;2023-11-21T00:41:44;10.60;99.90
49829;DHT22;35723;51.194;5.112;2023-11-21T00:44:10;10.70;99.90
49829;DHT22;35723;51.194;5.112;2023-11-21T00:46:36;10.60;99.90
49829;DHT22;35723;51.194;5.112;2023-11-21T00:49:02;10.60;99.90
49829;DHT22;35723;51.194;5.112;2023-11-21T00:51:30;10.50;99.90
49829;DHT22;35723;51.194;5.112;2023-11-21T00:53:55;10.50;99.90
49829;DHT22;35723;51.194;5.112;2023-11-21T00:56:21;10.50;99.90
49829;DHT22;35723;51.194;5.112;2023-11-21T00:58:47;10.40;99.90
49829;DHT22;35723;51.194;5.112;2023-11-21T01:01:16;10.40;99.90
49829;DHT22;35723;51.194;5.112;2023-11-21T01:03:42;10.30;99.90
49829;DHT22;35723;51.194;5.112;2023-11-21T01:06:08;10.30;99.90
49829;DHT22;35723;51.194;5.112;2023-11-21T01:08:34;10.30;99.90
49829;DHT22;35723;51.194;5.112;2023-11-21T01:11:01;10.20;99.90
49829;DHT22;35723;51.194;5.112;2023-11-21T01:13:27;10.20;99.90
49829;DHT22;35723;51.194;5.112;2023-11-21T01:15:53;10.30;99.90
49829;DHT22;35723;51.194;5.112;2023-11-21T01:18:19;10.30;99.90
49829;DHT22;35723;51.194;5.112;2023-11-21T01:20:44;10.30;99.90
49829;DHT22;35723;51.194;5.112;2023-11-21T01:23:12;10.30;99.90
49829;DHT22;35723;51.194;5.112;2023-11-21T01:25:38;10.30;99.90
49829;DHT22;35723;51.194;5.112;2023-11-21T01:28:04;10.30;99.90
49829;DHT22;35723;51.194;5.112;2023-11-21T01:30:29;10.30;99.90
49829;DHT22;35723;51.194;5.112;2023-11-21T01:32:55;10.30;99.90
49829;DHT22;35723;51.194;5.112;2023-11-21T01:35:20;10.30;99.90
49829;DHT22;35723;51.194;5.112;2023-11-21T01:37:46;10.30;99.90
49829;DHT22;35723;51.194;5.112;2023-11-21T01:40:13;10.30;99.90
49829;DHT22;35723;51.194;5.112;2023-11-21T01:42:40;10.40;99.90
49829;DHT22;35723;51.194;5.112;2023-11-21T01:45:06;10.40;99.90
49829;DHT22;35723;51.194;5.112;2023-11-21T01:47:33;10.40;99.90
49829;DHT22;35723;51.194;5.112;2023-11-21T01:50:02;10.40;99.90
49829;DHT22;35723;51.194;5.112;2023-11-21T01:52:30;10.40;99.90
49829;DHT22;35723;51.194;5.112;2023-11-21T01:54:56;10.40;99.90
49829;DHT22;35723;51.194;5.112;2023-11-21T01:57:23;10.40;99.90
49829;DHT22;35723;51.194;5.112;2023-11-21T01:59:48;10.40;99.90
49829;DHT22;35723;51.194;5.112;2023-11-21T02:02:15;10.40;99.90
49829;DHT22;35723;51.194;5.112;2023-11-21T02:04:42;10.30;99.90
49829;DHT22;35723;51.194;5.112;2023-11-21T02:07:07;10.40;99.90
49829;DHT22;35723;51.194;5.112;2023-11-21T02:09:34;10.30;99.90
49829;DHT22;35723;51.194;5.112;2023-11-21T02:12:00;10.30;99.90
49829;DHT22;35723;51.194;5.112;2023-11-21T02:14:29;10.30;99.90
49829;DHT22;35723;51.194;5.112;2023-11-21T02:16:56;10.30;99.90
49829;DHT22;35723;51.194;5.112;2023-11-21T02:19:23;10.30;99.90
49829;DHT22;35723;51.194;5.112;2023-11-21T02:21:51;10.30;99.90
49829;DHT22;35723;51.194;5.112;2023-11-21T02:24:21;10.30;99.90
49829;DHT22;35723;51.194;5.112;2023-11-21T02:26:50;10.20;99.90
49829;DHT22;35723;51.194;5.112;2023-11-21T02:29:20;10.20;99.90
49829;DHT22;35723;51.194;5.112;2023-11-21T02:31:54;10.30;99.90
49829;DHT22;35723;51.194;5.112;2023-11-21T02:34:21;10.30;99.90
49829;DHT22;35723;51.194;5.112;2023-11-21T02:36:48;10.30;99.90
49829;DHT22;35723;51.194;5.112;2023-11-21T02:39:17;10.40;99.90
49829;DHT22;35723;51.194;5.112;2023-11-21T02:41:43;10.40;99.90
49829;DHT22;35723;51.194;5.112;2023-11-21T02:44:09;10.40;99.90
49829;DHT22;35723;51.194;5.112;2023-11-21T02:46:36;10.40;99.90
49829;DHT22;35723;51.194;5.112;2023-11-21T02:49:05;10.40;99.90
49829;DHT22;35723;51.194;5.112;2023-11-21T02:51:32;10.40;99.90
49829;DHT22;35723;51.194;5.112;2023-11-21T02:53:58;10.30;99.90
49829;DHT22;35723;51.194;5.112;2023-11-21T02:56:27;10.40;99.90
49829;DHT22;35723;51.194;5.112;2023-11-21T02:58:56;10.40;99.90
49829;DHT22;35723;51.194;5.112;2023-11-21T03:01:22;10.40;99.90
49829;DHT22;35723;51.194;5.112;2023-11-21T03:03:49;10.20;99.90
49829;DHT22;35723;51.194;5.112;2023-11-21T03:06:19;10.30;99.90
49829;DHT22;35723;51.194;5.112;2023-11-21T03:08:46;10.30;99.90
49829;DHT22;35723;51.194;5.112;2023-11-21T03:11:12;10.40;99.90
49829;DHT22;35723;51.194;5.112;2023-11-21T03:13:41;10.30;99.90
49829;DHT22;35723;51.194;5.112;2023-11-21T03:16:10;10.30;99.90
49829;DHT22;35723;51.194;5.112;2023-11-21T03:18:39;10.30;99.90
49829;DHT22;35723;51.194;5.112;2023-11-21T03:21:06;10.30;99.90
49829;DHT22;35723;51.194;5.112;2023-11-21T03:23:34;10.30;99.90
49829;DHT22;35723;51.194;5.112;2023-11-21T03:26:00;10.30;99.90
49829;DHT22;35723;51.194;5.112;2023-11-21T03:28:26;10.40;99.90
49829;DHT22;35723;51.194;5.112;2023-11-21T03:30:55;10.40;99.90
49829;DHT22;35723;51.194;5.112;2023-11-21T03:33:22;10.30;99.90
49829;DHT22;35723;51.194;5.112;2023-11-21T03:35:48;10.30;99.90
49829;DHT22;35723;51.194;5.112;2023-11-21T03:38:14;10.30;99.90
49829;DHT22;35723;51.194;5.112;2023-11-21T03:40:40;10.30;99.90
49829;DHT22;35723;51.194;5.112;2023-11-21T03:43:05;10.30;99.90
49829;DHT22;35723;51.194;5.112;2023-11-21T03:45:32;10.30;99.90
49829;DHT22;35723;51.194;5.112;2023-11-21T03:47:57;10.30;99.90
49829;DHT22;35723;51.194;5.112;2023-11-21T03:50:23;10.40;99.90
49829;DHT22;35723;51.194;5.112;2023-11-21T03:52:48;10.40;99.90
49829;DHT22;35723;51.194;5.112;2023-11-21T03:55:14;10.40;99.90
49829;DHT22;35723;51.194;5.112;2023-11-21T03:57:40;10.30;99.90
49829;DHT22;35723;51.194;5.112;2023-11-21T04:00:06;10.30;99.90
49829;DHT22;35723;51.194;5.112;2023-11-21T04:02:34;10.30;99.90
49829;DHT22;35723;51.194;5.112;2023-11-21T04:05:00;10.30;99.90
49829;DHT22;35723;51.194;5.112;2023-11-21T04:07:26;10.30;99.90
49829;DHT22;35723;51.194;5.112;2023-11-21T04:09:52;10.40;99.90
49829;DHT22;35723;51.194;5.112;2023-11-21T04:12:19;10.30;99.90
49829;DHT22;35723;51.194;5.112;2023-11-21T04:14:44;10.30;99.90
49829;DHT22;35723;51.194;5.112;2023-11-21T04:17:10;10.30;99.90
49829;DHT22;35723;51.194;5.112;2023-11-21T04:19:36;10.30;99.90
49829;DHT22;35723;51.194;5.112;2023-11-21T04:22:01;10.40;99.90
49829;DHT22;35723;51.194;5.112;2023-11-21T04:24:27;10.40;99.90
49829;DHT22;35723;51.194;5.112;2023-11-21T04:26:53;10.40;99.90
49829;DHT22;35723;51.194;5.112;2023-11-21T04:29:18;10.40;99.90
49829;DHT22;35723;51.194;5.112;2023-11-21T04:31:44;10.40;99.90
49829;DHT22;35723;51.194;5.112;2023-11-21T04:34:10;10.40;99.90
49829;DHT22;35723;51.194;5.112;2023-11-21T04:36:35;10.40;99.90
49829;DHT22;35723;51.194;5.112;2023-11-21T04:39:01;10.40;99.90
49829;DHT22;35723;51.194;5.112;2023-11-21T04:41:26;10.40;99.90
49829;DHT22;35723;51.194;5.112;2023-11-21T04:43:52;10.40;99.90
49829;DHT22;35723;51.194;5.112;2023-11-21T04:46:18;10.40;99.90
49829;DHT22;35723;51.194;5.112;2023-11-21T04:48:44;10.50;99.90
49829;DHT22;35723;51.194;5.112;2023-11-21T04:51:09;10.50;99.90
49829;DHT22;35723;51.194;5.112;2023-11-21T04:53:37;10.50;99.90
49829;DHT22;35723;51.194;5.112;2023-11-21T04:56:03;10.50;99.90
49829;DHT22;35723;51.194;5.112;2023-11-21T04:58:28;10.50;99.90
49829;DHT22;35723;51.194;5.112;2023-11-21T05:00:54;10.50;99.90
49829;DHT22;35723;51.194;5.112;2023-11-21T05:03:20;10.50;99.90
49829;DHT22;35723;51.194;5.112;2023-11-21T05:05:46;10.50;99.90
49829;DHT22;35723;51.194;5.112;2023-11-21T05:08:11;10.50;99.90
49829;DHT22;35723;51.194;5.112;2023-11-21T05:10:37;10.50;99.90
49829;DHT22;35723;51.194;5.112;2023-11-21T05:13:04;10.60;99.90
49829;DHT22;35723;51.194;5.112;2023-11-21T05:15:35;10.60;99.90
49829;DHT22;35723;51.194;5.112;2023-11-21T05:18:00;10.60;99.90
49829;DHT22;35723;51.194;5.112;2023-11-21T05:20:26;10.60;99.90
49829;DHT22;35723;51.194;5.112;2023-11-21T05:22:52;10.50;99.90
49829;DHT22;35723;51.194;5.112;2023-11-21T05:25:17;10.60;99.90
49829;DHT22;35723;51.194;5.112;2023-11-21T05:27:45;10.60;99.90
49829;DHT22;35723;51.194;5.112;2023-11-21T05:30:11;10.60;99.90
49829;DHT22;35723;51.194;5.112;2023-11-21T05:32:37;10.60;99.90
49829;DHT22;35723;51.194;5.112;2023-11-21T05:35:03;10.50;99.90
49829;DHT22;35723;51.194;5.112;2023-11-21T05:37:35;10.60;99.90
49829;DHT22;35723;51.194;5.112;2023-11-21T05:40:01;10.60;99.90
49829;DHT22;35723;51.194;5.112;2023-11-21T05:42:32;10.60;99.90
49829;DHT22;35723;51.194;5.112;2023-11-21T05:44:58;10.70;99.90
49829;DHT22;35723;51.194;5.112;2023-11-21T05:47:40;10.70;99.90
49829;DHT22;35723;51.194;5.112;2023-11-21T05:50:07;10.60;99.90
49829;DHT22;35723;51.194;5.112;2023-11-21T05:52:36;10.70;99.90
49829;DHT22;35723;51.194;5.112;2023-11-21T05:55:03;10.70;99.90
49829;DHT22;35723;51.194;5.112;2023-11-21T05:57:30;10.70;99.90
49829;DHT22;35723;51.194;5.112;2023-11-21T05:59:56;10.70;99.90
49829;DHT22;35723;51.194;5.112;2023-11-21T06:02:21;10.70;99.90
49829;DHT22;35723;51.194;5.112;2023-11-21T06:04:47;10.80;99.90
49829;DHT22;35723;51.194;5.112;2023-11-21T06:07:13;10.70;99.90
49829;DHT22;35723;51.194;5.112;2023-11-21T06:09:38;10.70;99.90
49829;DHT22;35723;51.194;5.112;2023-11-21T06:12:04;10.80;99.90
49829;DHT22;35723;51.194;5.112;2023-11-21T06:14:31;10.80;99.90
49829;DHT22;35723;51.194;5.112;2023-11-21T06:16:58;10.80;99.90
49829;DHT22;35723;51.194;5.112;2023-11-21T06:19:24;10.80;99.90
49829;DHT22;35723;51.194;5.112;2023-11-21T06:21:49;10.80;99.90
49829;DHT22;35723;51.194;5.112;2023-11-21T06:24:15;10.80;99.90
49829;DHT22;35723;51.194;5.112;2023-11-21T06:26:41;10.80;99.90
49829;DHT22;35723;51.194;5.112;2023-11-21T06:29:07;10.80;99.90
49829;DHT22;35723;51.194;5.112;2023-11-21T06:31:32;10.80;99.90
49829;DHT22;35723;51.194;5.112;2023-11-21T06:33:58;10.80;99.90
49829;DHT22;35723;51.194;5.112;2023-11-21T06:36:25;10.80;99.90
49829;DHT22;35723;51.194;5.112;2023-11-21T06:38:52;10.80;99.90
49829;DHT22;35723;51.194;5.112;2023-11-21T06:41:17;10.80;99.90
49829;DHT22;35723;51.194;5.112;2023-11-21T06:43:43;10.90;99.90
49829;DHT22;35723;51.194;5.112;2023-11-21T06:46:12;10.80;99.90
49829;DHT22;35723;51.194;5.112;2023-11-21T06:48:42;10.90;99.90
49829;DHT22;35723;51.194;5.112;2023-11-21T06:51:08;10.90;99.90
49829;DHT22;35723;51.194;5.112;2023-11-21T06:53:33;10.90;99.90
49829;DHT22;35723;51.194;5.112;2023-11-21T06:55:59;10.90;99.90
49829;DHT22;35723;51.194;5.112;2023-11-21T06:58:25;10.90;99.90
49829;DHT22;35723;51.194;5.112;2023-11-21T07:00:50;10.90;99.90
49829;DHT22;35723;51.194;5.112;2023-11-21T07:03:17;10.90;99.90
49829;DHT22;35723;51.194;5.112;2023-11-21T07:05:44;10.90;99.90
49829;DHT22;35723;51.194;5.112;2023-11-21T07:08:10;11.00;99.90
49829;DHT22;35723;51.194;5.112;2023-11-21T07:10:36;10.90;99.90
49829;DHT22;35723;51.194;5.112;2023-11-21T07:13:02;11.00;99.90
49829;DHT22;35723;51.194;5.112;2023-11-21T07:15:28;10.90;99.90
49829;DHT22;35723;51.194;5.112;2023-11-21T07:17:53;11.00;99.90
49829;DHT22;35723;51.194;5.112;2023-11-21T07:20:19;10.90;99.90
49829;DHT22;35723;51.194;5.112;2023-11-21T07:22:45;11.00;99.90
49829;DHT22;35723;51.194;5.112;2023-11-21T07:25:11;11.00;99.90
49829;DHT22;35723;51.194;5.112;2023-11-21T07:27:37;11.00;99.90
49829;DHT22;35723;51.194;5.112;2023-11-21T07:30:03;11.00;99.90
49829;DHT22;35723;51.194;5.112;2023-11-21T07:32:34;11.00;99.90
49829;DHT22;35723;51.194;5.112;2023-11-21T07:34:59;11.00;99.90
49829;DHT22;35723;51.194;5.112;2023-11-21T07:37:26;11.00;99.90
49829;DHT22;35723;51.194;5.112;2023-11-21T07:39:54;11.00;99.90
49829;DHT22;35723;51.194;5.112;2023-11-21T07:42:23;11.10;99.90
49829;DHT22;35723;51.194;5.112;2023-11-21T07:44:49;11.10;99.90
49829;DHT22;35723;51.194;5.112;2023-11-21T07:47:15;11.10;99.90
49829;DHT22;35723;51.194;5.112;2023-11-21T07:49:41;11.10;99.90
49829;DHT22;35723;51.194;5.112;2023-11-21T07:52:09;11.10;99.90
49829;DHT22;35723;51.194;5.112;2023-11-21T07:54:35;11.10;99.90
49829;DHT22;35723;51.194;5.112;2023-11-21T07:57:01;11.10;99.90
49829;DHT22;35723;51.194;5.112;2023-11-21T07:59:28;11.10;99.90
49829;DHT22;35723;51.194;5.112;2023-11-21T08:01:53;11.10;99.90
49829;DHT22;35723;51.194;5.112;2023-11-21T08:04:19;11.20;99.90
49829;DHT22;35723;51.194;5.112;2023-11-21T08:06:45;11.20;99.90
49829;DHT22;35723;51.194;5.112;2023-11-21T08:09:11;11.10;99.90
49829;DHT22;35723;51.194;5.112;2023-11-21T08:11:38;11.20;99.90
49829;DHT22;35723;51.194;5.112;2023-11-21T08:14:05;11.20;99.90
49829;DHT22;35723;51.194;5.112;2023-11-21T08:16:30;11.20;99.90
49829;DHT22;35723;51.194;5.112;2023-11-21T08:18:56;11.20;99.90
49829;DHT22;35723;51.194;5.112;2023-11-21T08:21:22;11.20;99.90
49829;DHT22;35723;51.194;5.112;2023-11-21T08:23:52;11.30;99.90
49829;DHT22;35723;51.194;5.112;2023-11-21T08:26:20;11.30;99.90
49829;DHT22;35723;51.194;5.112;2023-11-21T08:28:45;11.30;99.90
49829;DHT22;35723;51.194;5.112;2023-11-21T08:31:12;11.30;99.90
49829;DHT22;35723;51.194;5.112;2023-11-21T08:33:38;11.30;99.90
49829;DHT22;35723;51.194;5.112;2023-11-21T08:36:07;11.30;99.90
49829;DHT22;35723;51.194;5.112;2023-11-21T08:38:34;11.30;99.90
49829;DHT22;35723;51.194;5.112;2023-11-21T08:41:06;11.40;99.90
49829;DHT22;35723;51.194;5.112;2023-11-21T08:43:35;11.30;99.90
49829;DHT22;35723;51.194;5.112;2023-11-21T08:46:07;11.40;99.90
49829;DHT22;35723;51.194;5.112;2023-11-21T08:48:37;11.40;99.90
49829;DHT22;35723;51.194;5.112;2023-11-21T08:51:03;11.40;99.90
49829;DHT22;35723;51.194;5.112;2023-11-21T08:53:30;11.40;99.90
49829;DHT22;35723;51.194;5.112;2023-11-21T08:55:56;11.40;99.90
49829;DHT22;35723;51.194;5.112;2023-11-21T08:58:22;11.40;99.90
49829;DHT22;35723;51.194;5.112;2023-11-21T09:00:48;11.50;99.90
49829;DHT22;35723;51.194;5.112;2023-11-21T09:03:13;11.50;99.90
49829;DHT22;35723;51.194;5.112;2023-11-21T09:05:39;11.50;99.90
49829;DHT22;35723;51.194;5.112;2023-11-21T09:08:05;11.50;99.90
49829;DHT22;35723;51.194;5.112;2023-11-21T09:10:33;11.50;99.90
49829;DHT22;35723;51.194;5.112;2023-11-21T09:13:01;11.50;99.90
49829;DHT22;35723;51.194;5.112;2023-11-21T09:15:27;11.60;99.90
49829;DHT22;35723;51.194;5.112;2023-11-21T09:17:53;11.50;99.90
49829;DHT22;35723;51.194;5.112;2023-11-21T09:20:19;11.60;99.90
49829;DHT22;35723;51.194;5.112;2023-11-21T09:22:48;11.60;99.90
49829;DHT22;35723;51.194;5.112;2023-11-21T09:25:14;11.60;99.90
49829;DHT22;35723;51.194;5.112;2023-11-21T09:27:39;11.70;99.90
49829;DHT22;35723;51.194;5.112;2023-11-21T09:30:06;11.70;99.90
49829;DHT22;35723;51.194;5.112;2023-11-21T09:32:35;11.70;99.90
49829;DHT22;35723;51.194;5.112;2023-11-21T09:35:03;11.70;99.90
49829;DHT22;35723;51.194;5.112;2023-11-21T09:37:30;11.70;99.90
49829;DHT22;35723;51.194;5.112;2023-11-21T09:39:56;11.70;99.90
49829;DHT22;35723;51.194;5.112;2023-11-21T09:42:37;11.70;99.90
49829;DHT22;35723;51.194;5.112;2023-11-21T09:45:26;11.80;99.90
49829;DHT22;35723;51.194;5.112;2023-11-21T09:47:54;11.80;99.90
49829;DHT22;35723;51.194;5.112;2023-11-21T09:50:24;11.80;99.90
49829;DHT22;35723;51.194;5.112;2023-11-21T09:53:17;11.90;99.90
49829;DHT22;35723;51.194;5.112;2023-11-21T09:55:43;11.90;99.90
49829;DHT22;35723;51.194;5.112;2023-11-21T09:58:10;11.80;99.90
49829;DHT22;35723;51.194;5.112;2023-11-21T10:00:44;11.80;99.90
49829;DHT22;35723;51.194;5.112;2023-11-21T10:03:10;11.90;99.90
49829;DHT22;35723;51.194;5.112;2023-11-21T10:05:37;11.90;99.90
49829;DHT22;35723;51.194;5.112;2023-11-21T10:08:12;11.90;99.90
49829;DHT22;35723;51.194;5.112;2023-11-21T10:10:45;12.00;99.90
49829;DHT22;35723;51.194;5.112;2023-11-21T10:13:12;11.90;99.90
49829;DHT22;35723;51.194;5.112;2023-11-21T10:15:39;12.00;99.90
49829;DHT22;35723;51.194;5.112;2023-11-21T10:18:09;12.00;99.90
49829;DHT22;35723;51.194;5.112;2023-11-21T10:20:35;12.00;99.90
49829;DHT22;35723;51.194;5.112;2023-11-21T10:23:03;12.00;99.90
49829;DHT22;35723;51.194;5.112;2023-11-21T10:25:33;11.90;99.90
49829;DHT22;35723;51.194;5.112;2023-11-21T10:27:59;11.80;99.90
49829;DHT22;35723;51.194;5.112;2023-11-21T10:30:37;11.80;99.90
49829;DHT22;35723;51.194;5.112;2023-11-21T10:33:04;11.80;99.90
49829;DHT22;35723;51.194;5.112;2023-11-21T10:35:46;11.80;99.90
49829;DHT22;35723;51.194;5.112;2023-11-21T10:38:19;11.80;99.90
49829;DHT22;35723;51.194;5.112;2023-11-21T10:40:46;11.60;99.90
49829;DHT22;35723;51.194;5.112;2023-11-21T10:43:13;11.40;99.90
49829;DHT22;35723;51.194;5.112;2023-11-21T10:45:40;11.40;99.90
49829;DHT22;35723;51.194;5.112;2023-11-21T10:48:08;11.40;99.90
49829;DHT22;35723;51.194;5.112;2023-11-21T10:50:36;11.40;99.90
49829;DHT22;35723;51.194;5.112;2023-11-21T10:53:05;11.40;99.90
49829;DHT22;35723;51.194;5.112;2023-11-21T10:55:32;11.50;99.90
49829;DHT22;35723;51.194;5.112;2023-11-21T10:58:02;11.60;99.90
49829;DHT22;35723;51.194;5.112;2023-11-21T11:00:30;11.70;99.90
49829;DHT22;35723;51.194;5.112;2023-11-21T11:02:56;11.70;99.90
49829;DHT22;35723;51.194;5.112;2023-11-21T11:05:27;11.60;99.90
49829;DHT22;35723;51.194;5.112;2023-11-21T11:08:05;11.60;99.90
49829;DHT22;35723;51.194;5.112;2023-11-21T11:10:33;11.60;99.90
49829;DHT22;35723;51.194;5.112;2023-11-21T11:13:00;11.50;99.90
49829;DHT22;35723;51.194;5.112;2023-11-21T11:15:27;11.50;99.90
49829;DHT22;35723;51.194;5.112;2023-11-21T11:17:54;11.40;99.90
49829;DHT22;35723;51.194;5.112;2023-11-21T11:20:30;11.30;99.90
49829;DHT22;35723;51.194;5.112;2023-11-21T11:23:32;11.30;99.90
49829;DHT22;35723;51.194;5.112;2023-11-21T11:31:55;11.70;99.90
49829;DHT22;35723;51.194;5.112;2023-11-21T11:34:28;11.80;99.90
49829;DHT22;35723;51.194;5.112;2023-11-21T11:37:04;11.90;99.90
49829;DHT22;35723;51.194;5.112;2023-11-21T11:39:42;11.70;99.90
49829;DHT22;35723;51.194;5.112;2023-11-21T11:42:12;11.70;99.90
49829;DHT22;35723;51.194;5.112;2023-11-21T11:47:20;11.80;99.90
49829;DHT22;35723;51.194;5.112;2023-11-21T11:50:17;11.90;99.90
49829;DHT22;35723;51.194;5.112;2023-11-21T11:52:44;12.10;99.90
49829;DHT22;35723;51.194;5.112;2023-11-21T11:55:14;12.20;99.90
49829;DHT22;35723;51.194;5.112;2023-11-21T11:57:43;12.30;99.90
49829;DHT22;35723;51.194;5.112;2023-11-21T12:00:15;12.40;99.90
49829;DHT22;35723;51.194;5.112;2023-11-21T12:02:46;12.30;99.90
49829;DHT22;35723;51.194;5.112;2023-11-21T12:05:14;12.30;99.90
49829;DHT22;35723;51.194;5.112;2023-11-21T12:10:13;12.30;99.90
49829;DHT22;35723;51.194;5.112;2023-11-21T12:12:43;12.20;99.90
49829;DHT22;35723;51.194;5.112;2023-11-21T12:15:11;12.20;99.90
49829;DHT22;35723;51.194;5.112;2023-11-21T12:17:37;12.20;99.90
49829;DHT22;35723;51.194;5.112;2023-11-21T12:20:04;12.20;99.90
49829;DHT22;35723;51.194;5.112;2023-11-21T12:22:32;12.40;99.90
49829;DHT22;35723;51.194;5.112;2023-11-21T12:24:57;12.20;99.90
49829;DHT22;35723;51.194;5.112;2023-11-21T12:27:23;12.30;99.90
49829;DHT22;35723;51.194;5.112;2023-11-21T12:29:49;12.40;99.90
49829;DHT22;35723;51.194;5.112;2023-11-21T12:32:14;12.40;99.90
49829;DHT22;35723;51.194;5.112;2023-11-21T12:34:43;12.30;99.90
49829;DHT22;35723;51.194;5.112;2023-11-21T12:37:09;12.30;99.90
49829;DHT22;35723;51.194;5.112;2023-11-21T12:39:36;12.40;99.90
49829;DHT22;35723;51.194;5.112;2023-11-21T12:42:01;12.50;99.90
49829;DHT22;35723;51.194;5.112;2023-11-21T12:44:27;12.60;99.90
49829;DHT22;35723;51.194;5.112;2023-11-21T12:46:53;12.50;99.90
49829;DHT22;35723;51.194;5.112;2023-11-21T12:49:19;12.70;99.90
49829;DHT22;35723;51.194;5.112;2023-11-21T12:51:47;12.70;99.90
49829;DHT22;35723;51.194;5.112;2023-11-21T12:54:13;12.70;99.90
49829;DHT22;35723;51.194;5.112;2023-11-21T12:56:39;12.60;99.90
49829;DHT22;35723;51.194;5.112;2023-11-21T12:59:05;12.40;99.90
49829;DHT22;35723;51.194;5.112;2023-11-21T13:01:31;12.50;99.90
49829;DHT22;35723;51.194;5.112;2023-11-21T13:03:58;12.70;99.90
49829;DHT22;35723;51.194;5.112;2023-11-21T13:06:27;12.80;99.90
49829;DHT22;35723;51.194;5.112;2023-11-21T13:08:58;12.70;99.90
49829;DHT22;35723;51.194;5.112;2023-11-21T13:11:24;12.60;99.90
49829;DHT22;35723;51.194;5.112;2023-11-21T13:13:52;12.60;99.90
49829;DHT22;35723;51.194;5.112;2023-11-21T13:16:18;12.50;99.90
49829;DHT22;35723;51.194;5.112;2023-11-21T13:18:46;12.50;99.90
49829;DHT22;35723;51.194;5.112;2023-11-21T13:21:12;12.30;99.90
49829;DHT22;35723;51.194;5.112;2023-11-21T13:23:42;12.30;99.90
49829;DHT22;35723;51.194;5.112;2023-11-21T13:26:08;12.20;99.90
49829;DHT22;35723;51.194;5.112;2023-11-21T13:28:35;12.20;99.90
49829;DHT22;35723;51.194;5.112;2023-11-21T13:31:03;12.20;99.90
49829;DHT22;35723;51.194;5.112;2023-11-21T13:33:36;12.20;99.90
49829;DHT22;35723;51.194;5.112;2023-11-21T13:36:04;12.20;99.90
49829;DHT22;35723;51.194;5.112;2023-11-21T13:38:33;12.00;99.90
49829;DHT22;35723;51.194;5.112;2023-11-21T13:41:01;12.10;99.90
49829;DHT22;35723;51.194;5.112;2023-11-21T13:43:26;12.10;99.90
49829;DHT22;35723;51.194;5.112;2023-11-21T13:45:54;12.20;99.90
49829;DHT22;35723;51.194;5.112;2023-11-21T13:48:38;12.20;99.90
49829;DHT22;35723;51.194;5.112;2023-11-21T13:51:08;12.30;99.90
49829;DHT22;35723;51.194;5.112;2023-11-21T13:53:41;12.30;99.90
49829;DHT22;35723;51.194;5.112;2023-11-21T13:56:08;12.30;99.90
49829;DHT22;35723;51.194;5.112;2023-11-21T13:58:34;12.30;99.90
49829;DHT22;35723;51.194;5.112;2023-11-21T14:01:19;12.10;99.90
49829;DHT22;35723;51.194;5.112;2023-11-21T14:03:58;12.20;99.90
49829;DHT22;35723;51.194;5.112;2023-11-21T14:06:35;12.10;99.90
49829;DHT22;35723;51.194;5.112;2023-11-21T14:09:09;12.00;99.90
49829;DHT22;35723;51.194;5.112;2023-11-21T14:11:34;12.20;99.90
49829;DHT22;35723;51.194;5.112;2023-11-21T14:14:03;12.10;99.90
49829;DHT22;35723;51.194;5.112;2023-11-21T14:16:29;12.10;99.90
49829;DHT22;35723;51.194;5.112;2023-11-21T14:18:54;12.20;99.90
49829;DHT22;35723;51.194;5.112;2023-11-21T14:21:29;12.20;99.90
49829;DHT22;35723;51.194;5.112;2023-11-21T14:23:55;12.30;99.90
49829;DHT22;35723;51.194;5.112;2023-11-21T14:26:21;12.20;99.90
49829;DHT22;35723;51.194;5.112;2023-11-21T14:28:50;12.20;99.90
49829;DHT22;35723;51.194;5.112;2023-11-21T14:31:16;12.10;99.90
49829;DHT22;35723;51.194;5.112;2023-11-21T14:33:45;12.10;99.90
49829;DHT22;35723;51.194;5.112;2023-11-21T14:36:11;12.20;99.90
49829;DHT22;35723;51.194;5.112;2023-11-21T14:38:37;12.30;99.90
49829;DHT22;35723;51.194;5.112;2023-11-21T14:41:05;12.50;99.90
49829;DHT22;35723;51.194;5.112;2023-11-21T14:43:36;12.50;99.90
49829;DHT22;35723;51.194;5.112;2023-11-21T14:46:03;12.50;99.90
49829;DHT22;35723;51.194;5.112;2023-11-21T14:48:32;12.60;99.90
49829;DHT22;35723;51.194;5.112;2023-11-21T14:51:13;12.40;99.90
49829;DHT22;35723;51.194;5.112;2023-11-21T14:53:56;12.50;99.90
49829;DHT22;35723;51.194;5.112;2023-11-21T14:56:26;12.50;99.90
49829;DHT22;35723;51.194;5.112;2023-11-21T14:58:56;12.40;99.90
49829;DHT22;35723;51.194;5.112;2023-11-21T15:01:23;12.40;99.90
49829;DHT22;35723;51.194;5.112;2023-11-21T15:04:07;12.20;99.90
49829;DHT22;35723;51.194;5.112;2023-11-21T15:06:40;11.80;99.90
49829;DHT22;35723;51.194;5.112;2023-11-21T15:09:08;11.60;99.90
49829;DHT22;35723;51.194;5.112;2023-11-21T15:11:54;11.60;99.90
49829;DHT22;35723;51.194;5.112;2023-11-21T15:14:24;11.70;99.90
49829;DHT22;35723;51.194;5.112;2023-11-21T15:16:51;11.90;99.90
49829;DHT22;35723;51.194;5.112;2023-11-21T15:19:18;11.90;99.90
49829;DHT22;35723;51.194;5.112;2023-11-21T15:21:50;12.00;99.90
49829;DHT22;35723;51.194;5.112;2023-11-21T15:24:16;12.10;99.90
49829;DHT22;35723;51.194;5.112;2023-11-21T15:26:42;12.30;99.90
49829;DHT22;35723;51.194;5.112;2023-11-21T15:29:08;12.50;99.90
49829;DHT22;35723;51.194;5.112;2023-11-21T15:31:34;12.40;99.90
49829;DHT22;35723;51.194;5.112;2023-11-21T15:34:01;12.20;99.90
49829;DHT22;35723;51.194;5.112;2023-11-21T15:36:27;12.00;99.90
49829;DHT22;35723;51.194;5.112;2023-11-21T15:38:53;11.70;99.90
49829;DHT22;35723;51.194;5.112;2023-11-21T15:41:20;11.60;99.90
49829;DHT22;35723;51.194;5.112;2023-11-21T15:43:45;11.60;99.90